Aérodrome :
LOGIN :

S'inscrire | Disclaimer

   EN    FR    IT 

 










Légende :    VFR   VFR Marginal   IFR   IFR Intensif   IFR Très Intensif
Visi : 
Plafond : 
>= 8 km
>= 3000ft
5 à 8 km
1000 à 3000 ft
1500m à 5 km
500 à 1000 ft
800 à 1500m
200 à 500 ft
< 800m
< 200 ft
Symboles :   Orages  Brouillard  Fortes neiges  Fortes précipitations  Vent > 20 kt
SIGMETs :   Divers  Orages  Givrage  Turbulence  Onde Orograph.  Cendres Volcan.







- Altitude de l'aérodrome : 200 ft


EBBL - Klein Brogel AB

DERNIER METAR :
  • 162155Z AUTO 25007KT 8000 -DZ OVC012/// 02/02 Q1018 GRN

METARs EXPIRÉS :
  • 162125Z AUTO 26007KT 9999 -RA FEW006/// OVC013/// 02/01 Q1018 GRN
  • 162055Z AUTO 26006KT 9999 DZ OVC007/// 02/02 Q1018 GRN
  • 162039Z AUTO 26007KT 9999 BKN008/// OVC038/// 02/02 Q1018 GRN
  • 162025Z AUTO 25008KT 9999 BKN019/// BKN032/// BKN038/// 02/02 Q1018 WHT
  • 161955Z AUTO 24008KT 9999 SCT021/// BKN044/// 02/01 Q1017 WHT
  • 161944Z AUTO 25007KT 9999 SCT021/// BKN036/// 02/01 Q1017 WHT
  • 161925Z AUTO 25006KT 9999 BKN030/// BKN079/// 02/02 Q1017 BLU

Prévision TAF périmée.
Pas de NOTAMs connus pour ce terrain.



MET'MAP, la Météo Aéronautique d'un coup d'oeil ! - Copyright ORBIFLY Décembre 2007 - Disclaimer

ORBIFLY MET'MAP TEAM :

Programmation & Développement : Alexandra Zaïnal
Conception & Développement : Baudouin d'Aumeries
Co-Programmation & Développement : Marc-Olivier Méhu
Soutien technique & logistique : Manuel Goepfert

Contact : metmap@orbifly.com




SOURCES & CREDITS :

   NOAA